Terminal Aerodrome Forecast
Issued by NWS

Home | Current Version | Previous Version | Text Only | Print | Product List | Glossary On
Versions: 1 2 3 4 5 6 7 8 9 10 11 12 13 14
000
FTUS46 KSEW 291131
TAFPAE
TAF
KPAE 291131Z 2912/3012 35006KT 5SM BR OVC002
     FM291400 20008KT 5SM BR OVC005
     FM291800 23006KT P6SM BKN009
     FM291900 29005KT P6SM FEW090 SCT250
     FM300300 VRB05KT P6SM SCT090 BKN250
     FM300600 VRB05KT P6SM FEW015 BKN090 BKN250
     FM300900 19005KT P6SM OVC008=

USA.gov is the U.S. government's official web portal to all federal, state and local government web resources and services.